createdAt,value
2022-12-08T00:01:31.286Z,9.50
2022-12-08T00:04:00.661Z,9.93
2022-12-08T00:07:00.782Z,10.20
2022-12-08T00:09:38.330Z,8.45
2022-12-08T00:12:09.950Z,8.63
2022-12-08T00:14:45.783Z,9.43
2022-12-08T00:17:15.350Z,10.32
2022-12-08T00:19:44.038Z,9.25
2022-12-08T00:22:12.874Z,9.43
2022-12-08T00:24:41.372Z,11.00
2022-12-08T00:27:10.401Z,7.78
2022-12-08T00:29:38.224Z,9.10
2022-12-08T00:32:06.486Z,9.27
2022-12-08T00:34:34.253Z,7.63
2022-12-08T00:37:01.728Z,10.13
2022-12-08T00:39:29.256Z,9.25
2022-12-08T00:42:14.859Z,9.10
2022-12-08T00:44:44.002Z,7.85
2022-12-08T00:47:12.284Z,9.02
2022-12-08T00:49:40.027Z,9.32
2022-12-08T00:52:07.952Z,8.60
2022-12-08T00:54:35.865Z,8.73
2022-12-08T00:57:03.991Z,8.60
2022-12-08T00:59:31.872Z,10.18
2022-12-08T01:01:59.215Z,8.27
2022-12-08T01:04:26.753Z,9.68
2022-12-08T01:06:54.373Z,11.32
2022-12-08T01:09:21.987Z,8.63
2022-12-08T01:11:49.267Z,9.38
2022-12-08T01:14:16.797Z,9.85
2022-12-08T01:16:44.221Z,8.77
2022-12-08T01:19:14.155Z,8.70
2022-12-08T01:21:42.378Z,9.57
2022-12-08T01:24:16.053Z,7.15
2022-12-08T01:26:43.406Z,8.80
2022-12-08T01:29:11.445Z,9.68
2022-12-08T01:31:39.279Z,9.25
2022-12-08T01:34:08.427Z,9.55
2022-12-08T01:36:39.815Z,7.75
2022-12-08T01:39:10.756Z,8.80
2022-12-08T01:41:38.285Z,10.27
2022-12-08T01:44:08.704Z,10.07
2022-12-08T01:46:38.475Z,6.72
2022-12-08T01:49:30.361Z,7.28
2022-12-08T01:52:37.692Z,8.05
2022-12-08T01:55:11.619Z,8.90
2022-12-08T01:57:46.160Z,8.07
2022-12-08T02:00:17.592Z,9.20
2022-12-08T02:03:03.105Z,8.18
2022-12-08T02:05:37.769Z,8.98
2022-12-08T02:08:11.031Z,9.05
2022-12-08T02:10:41.285Z,9.27
2022-12-08T02:13:16.779Z,9.60
2022-12-08T02:16:00.585Z,7.70
2022-12-08T02:19:29.247Z,7.00
2022-12-08T02:22:07.113Z,7.43
2022-12-08T02:24:44.444Z,8.73
2022-12-08T02:27:21.126Z,7.35
2022-12-08T02:30:07.141Z,8.63
2022-12-08T02:33:21.889Z,7.18
2022-12-08T02:36:01.413Z,7.25
2022-12-08T02:38:53.829Z,6.63
2022-12-08T02:41:34.976Z,8.50
2022-12-08T02:44:12.200Z,7.75
2022-12-08T02:46:50.636Z,7.78
2022-12-08T02:49:18.179Z,6.45
2022-12-08T02:51:45.363Z,6.60
2022-12-08T02:54:14.797Z,7.80
2022-12-08T02:57:11.606Z,6.82
2022-12-08T03:00:11.750Z,8.93
2022-12-08T03:02:44.029Z,6.63
2022-12-08T03:05:18.268Z,7.07
2022-12-08T03:08:08.098Z,7.40
2022-12-08T03:11:08.233Z,9.00
2022-12-08T03:13:51.098Z,12.43
2022-12-08T03:16:23.637Z,7.63
2022-12-08T03:19:06.706Z,9.50
2022-12-08T03:21:35.997Z,7.40
2022-12-08T03:24:07.489Z,7.57
2022-12-08T03:26:44.037Z,7.47
2022-12-08T03:29:11.867Z,8.02
2022-12-08T03:31:45.504Z,7.53
2022-12-08T03:34:14.257Z,5.18
2022-12-08T03:36:43.955Z,9.38
2022-12-08T03:39:11.380Z,6.55
2022-12-08T03:41:39.007Z,7.05
2022-12-08T03:44:06.372Z,7.43
2022-12-08T03:46:34.281Z,7.82
2022-12-08T03:49:01.601Z,7.97
2022-12-08T03:51:29.181Z,8.25
2022-12-08T03:53:56.563Z,8.38
2022-12-08T03:56:32.027Z,8.48
2022-12-08T03:58:59.792Z,6.47
2022-12-08T04:01:27.696Z,6.82
2022-12-08T04:03:55.260Z,6.30
2022-12-08T04:06:23.437Z,6.63
2022-12-08T04:08:51.568Z,6.60
2022-12-08T04:11:20.220Z,5.88
2022-12-08T04:13:47.559Z,5.30
2022-12-08T04:16:22.053Z,5.93
2022-12-08T04:18:49.469Z,6.90
2022-12-08T04:21:17.384Z,5.75
2022-12-08T04:23:45.011Z,6.07
2022-12-08T04:26:13.479Z,6.35
2022-12-08T04:28:40.940Z,6.60
2022-12-08T04:31:08.674Z,6.70
2022-12-08T04:33:36.048Z,8.18
2022-12-08T04:36:05.078Z,7.90
2022-12-08T04:38:33.717Z,6.15
2022-12-08T04:41:02.004Z,6.22
2022-12-08T04:43:29.720Z,8.90
2022-12-08T04:45:57.289Z,6.00
2022-12-08T04:48:24.567Z,6.65
2022-12-08T04:50:52.216Z,6.22
2022-12-08T04:53:20.055Z,6.00
2022-12-08T04:55:49.564Z,8.70
2022-12-08T04:58:19.318Z,6.97
2022-12-08T05:00:47.810Z,7.00
2022-12-08T05:03:16.120Z,6.43
2022-12-08T05:05:44.262Z,6.20
2022-12-08T05:08:11.905Z,6.32
2022-12-08T05:10:40.420Z,6.43
2022-12-08T05:13:08.436Z,8.40
2022-12-08T05:15:36.003Z,7.20
2022-12-08T05:18:05.315Z,8.45
2022-12-08T05:20:33.651Z,5.57
2022-12-08T05:23:01.184Z,5.30
2022-12-08T05:25:28.736Z,6.28
2022-12-08T05:28:17.618Z,6.50
2022-12-08T05:30:43.643Z,5.38
2022-12-08T05:33:10.988Z,8.43
2022-12-08T05:35:38.526Z,6.32
2022-12-08T05:38:06.722Z,5.55
2022-12-08T05:40:34.509Z,5.60
2022-12-08T05:43:01.728Z,5.78
2022-12-08T05:45:29.278Z,5.75
2022-12-08T05:47:56.559Z,6.63
2022-12-08T05:50:24.135Z,6.88
2022-12-08T05:52:51.772Z,5.47
2022-12-08T05:55:19.792Z,5.68
2022-12-08T05:57:47.256Z,7.45
2022-12-08T06:00:15.319Z,7.18
2022-12-08T06:02:42.778Z,7.35
2022-12-08T06:05:10.510Z,7.40
2022-12-08T06:07:38.636Z,6.90
2022-12-08T06:10:07.180Z,6.68
2022-12-08T06:12:34.562Z,6.57
2022-12-08T06:15:02.095Z,6.88
2022-12-08T06:17:29.394Z,10.40
2022-12-08T06:19:56.902Z,8.30
2022-12-08T06:22:24.221Z,10.02
2022-12-08T06:24:51.999Z,10.25
2022-12-08T06:27:19.393Z,7.72
2022-12-08T06:29:46.962Z,11.65
2022-12-08T06:32:14.533Z,10.48
2022-12-08T06:34:42.104Z,7.70
2022-12-08T06:37:09.457Z,9.75
2022-12-08T06:39:37.081Z,8.98
2022-12-08T06:42:23.067Z,9.07
2022-12-08T06:44:51.220Z,14.02
2022-12-08T06:47:26.087Z,12.15
2022-12-08T06:49:53.961Z,7.18
2022-12-08T06:52:21.287Z,9.23
2022-12-08T06:54:48.777Z,8.95
2022-12-08T06:57:16.388Z,8.68
2022-12-08T06:59:44.036Z,7.53
2022-12-08T07:02:11.588Z,9.98
2022-12-08T07:04:39.158Z,12.02
2022-12-08T07:07:06.440Z,10.50
2022-12-08T07:09:33.934Z,6.82
2022-12-08T07:12:01.326Z,8.57
2022-12-08T07:14:29.592Z,8.68
2022-12-08T07:16:57.053Z,6.53
2022-12-08T07:19:24.820Z,11.23
2022-12-08T07:21:52.112Z,11.00
2022-12-08T07:24:19.644Z,10.48
2022-12-08T07:26:46.937Z,9.35
2022-12-08T07:29:14.431Z,6.53
2022-12-08T07:31:41.748Z,7.25
2022-12-08T07:34:12.214Z,8.45
2022-12-08T07:36:40.021Z,5.70
2022-12-08T07:39:07.693Z,9.80
2022-12-08T07:41:34.965Z,6.72
2022-12-08T07:44:02.560Z,5.90
2022-12-08T07:46:29.895Z,6.28
2022-12-08T07:48:57.657Z,6.95
2022-12-08T07:51:25.277Z,8.13
2022-12-08T07:53:54.810Z,10.23
2022-12-08T07:56:23.293Z,10.73
2022-12-08T07:58:51.099Z,7.03
2022-12-08T08:01:24.908Z,9.00
2022-12-08T08:03:53.737Z,5.70
2022-12-08T08:06:21.135Z,9.13
2022-12-08T08:08:48.949Z,8.00
2022-12-08T08:11:20.840Z,6.82
2022-12-08T08:13:50.787Z,6.78
2022-12-08T08:16:19.730Z,5.40
2022-12-08T08:18:49.340Z,6.10
2022-12-08T08:24:05.833Z,6.63
2022-12-08T08:26:33.067Z,8.40
2022-12-08T08:29:01.031Z,7.10
2022-12-08T08:31:28.430Z,7.10
2022-12-08T08:33:57.123Z,10.32
2022-12-08T08:36:24.795Z,5.75
2022-12-08T08:38:52.342Z,6.45
2022-12-08T08:41:19.619Z,5.68
2022-12-08T08:43:47.205Z,6.22
2022-12-08T08:46:14.612Z,5.85
2022-12-08T08:48:42.298Z,6.63
2022-12-08T08:51:11.844Z,6.85
2022-12-08T08:53:39.806Z,8.77
2022-12-08T08:56:15.312Z,6.05
2022-12-08T08:58:42.864Z,6.03
2022-12-08T09:01:15.707Z,5.32
2022-12-08T09:03:44.350Z,6.47
2022-12-08T09:06:12.337Z,7.32
2022-12-08T09:08:41.065Z,6.50
2022-12-08T09:11:09.221Z,4.97
2022-12-08T09:13:37.268Z,6.35
2022-12-08T09:16:06.815Z,6.25
2022-12-08T09:18:34.781Z,8.00
2022-12-08T09:21:08.152Z,8.10
2022-12-08T09:23:36.169Z,7.32
2022-12-08T09:26:05.115Z,6.63
2022-12-08T09:28:33.483Z,6.75
2022-12-08T09:31:01.567Z,6.65
2022-12-08T09:33:29.149Z,9.05
2022-12-08T09:35:56.516Z,8.13
2022-12-08T09:38:24.021Z,6.25
2022-12-08T09:40:54.803Z,6.80
2022-12-08T09:43:32.214Z,7.45
2022-12-08T09:45:59.942Z,5.97
2022-12-08T09:48:35.610Z,5.93
2022-12-08T09:51:04.880Z,7.15
2022-12-08T09:53:37.291Z,6.72
2022-12-08T09:56:30.174Z,5.90
2022-12-08T09:59:20.956Z,7.60
2022-12-08T10:01:48.639Z,6.40
2022-12-08T10:04:32.475Z,8.18
2022-12-08T10:07:19.004Z,6.65
2022-12-08T10:10:21.887Z,7.82
2022-12-08T10:12:57.920Z,6.75
2022-12-08T10:15:25.409Z,7.78
2022-12-08T10:17:54.374Z,6.55
2022-12-08T10:20:24.581Z,7.32
2022-12-08T10:23:15.857Z,7.05
2022-12-08T10:25:46.905Z,6.53
2022-12-08T10:28:14.393Z,7.18
2022-12-08T10:30:42.582Z,7.20
2022-12-08T10:33:16.134Z,6.05
2022-12-08T10:35:48.636Z,5.97
2022-12-08T10:38:26.729Z,6.25
2022-12-08T10:41:09.890Z,6.40
2022-12-08T10:44:01.410Z,7.00
2022-12-08T10:46:30.054Z,6.13
2022-12-08T10:49:06.487Z,5.93
2022-12-08T10:51:34.132Z,7.07
2022-12-08T10:54:01.741Z,6.80
2022-12-08T10:56:31.211Z,7.30
2022-12-08T10:59:16.863Z,7.20
2022-12-08T11:01:52.781Z,7.15
2022-12-08T11:04:22.695Z,7.43
2022-12-08T11:06:52.478Z,5.80
2022-12-08T11:09:19.703Z,5.55
2022-12-08T11:11:51.407Z,5.88
2022-12-08T11:14:25.606Z,7.88
2022-12-08T11:17:05.276Z,6.10
2022-12-08T11:19:38.553Z,6.97
2022-12-08T11:22:24.387Z,6.13
2022-12-08T11:25:07.953Z,6.90
2022-12-08T11:27:37.680Z,7.20
2022-12-08T11:30:15.786Z,7.85
2022-12-08T11:32:45.211Z,6.10
2022-12-08T11:35:19.097Z,6.75
2022-12-08T11:37:46.826Z,6.20
2022-12-08T11:40:14.220Z,7.45
2022-12-08T11:42:57.990Z,6.53
2022-12-08T11:45:30.331Z,5.95
2022-12-08T11:48:09.757Z,6.63
2022-12-08T11:50:39.965Z,7.80
2022-12-08T11:53:16.872Z,7.13
2022-12-08T11:55:52.100Z,6.25
2022-12-08T11:58:26.728Z,6.65
2022-12-08T12:00:54.057Z,6.15
2022-12-08T12:03:37.376Z,6.18
2022-12-08T12:06:46.397Z,6.57
2022-12-08T12:09:21.933Z,7.28
2022-12-08T12:12:24.437Z,5.72
2022-12-08T12:15:13.687Z,5.93
2022-12-08T12:17:49.988Z,6.55
2022-12-08T12:20:20.156Z,6.22
2022-12-08T12:22:53.864Z,6.30
2022-12-08T12:25:26.026Z,5.63
2022-12-08T12:28:00.341Z,5.85
2022-12-08T12:30:35.352Z,6.53
2022-12-08T12:33:08.641Z,6.15
2022-12-08T12:35:48.225Z,6.07
2022-12-08T12:38:41.780Z,6.97
2022-12-08T12:41:12.352Z,6.07
2022-12-08T12:43:39.782Z,4.97
2022-12-08T12:46:40.680Z,6.97
2022-12-08T12:49:49.650Z,5.40
2022-12-08T12:52:18.021Z,4.72
2022-12-08T12:55:11.178Z,7.13
2022-12-08T12:57:51.337Z,5.35
2022-12-08T13:00:22.129Z,5.80
2022-12-08T13:02:51.907Z,6.57
2022-12-08T13:05:26.253Z,6.07
2022-12-08T13:10:33.616Z,6.25
2022-12-08T13:13:10.334Z,4.90
2022-12-08T13:15:41.777Z,5.50
2022-12-08T13:18:21.585Z,5.88
2022-12-08T13:21:04.500Z,5.68
2022-12-08T13:23:37.850Z,5.50
2022-12-08T13:26:23.624Z,5.60
2022-12-08T13:29:04.152Z,4.78
2022-12-08T13:31:51.476Z,6.28
2022-12-08T13:34:36.200Z,5.75
2022-12-08T13:37:13.470Z,6.25
2022-12-08T13:39:41.117Z,6.15
2022-12-08T13:42:11.681Z,5.20
2022-12-08T13:48:20.559Z,6.50
2022-12-08T13:59:34.443Z,6.35
2022-12-08T14:05:16.987Z,6.35
2022-12-08T14:07:33.831Z,5.85
2022-12-08T14:10:03.619Z,5.82
2022-12-08T14:12:31.656Z,5.47
2022-12-08T14:15:06.217Z,5.63
2022-12-08T14:17:34.321Z,5.43
2022-12-08T14:20:14.577Z,5.78
2022-12-08T14:22:42.204Z,6.18
2022-12-08T14:25:15.026Z,6.65
2022-12-08T14:27:43.285Z,6.63
2022-12-08T14:30:13.992Z,6.28
2022-12-08T14:32:48.889Z,5.65
2022-12-08T14:35:30.005Z,6.15
2022-12-08T14:38:00.631Z,11.18
2022-12-08T14:40:39.438Z,11.95
2022-12-08T14:43:07.360Z,6.65
2022-12-08T14:45:40.386Z,7.28
2022-12-08T14:48:30.740Z,10.98
2022-12-08T14:51:05.525Z,7.57
2022-12-08T14:53:47.790Z,9.25
2022-12-08T14:56:23.640Z,7.05
2022-12-08T14:59:06.362Z,8.93
2022-12-08T15:01:34.783Z,6.82
2022-12-08T15:04:26.961Z,7.60
2022-12-08T15:07:07.343Z,10.85
2022-12-08T15:09:34.893Z,9.07
2022-12-08T15:12:03.400Z,12.23
2022-12-08T15:14:34.498Z,8.07
2022-12-08T15:17:01.805Z,11.15
2022-12-08T15:19:34.073Z,10.70
2022-12-08T15:22:20.944Z,11.23
2022-12-08T15:24:48.629Z,11.32
2022-12-08T15:27:20.757Z,11.65
2022-12-08T15:29:48.501Z,10.80
2022-12-08T15:32:23.496Z,10.45
2022-12-08T15:34:51.074Z,9.35
2022-12-08T15:37:23.813Z,7.32
2022-12-08T15:39:51.420Z,12.05
2022-12-08T15:42:18.873Z,7.53
2022-12-08T15:44:47.787Z,7.65
2022-12-08T15:47:19.082Z,15.82
2022-12-08T15:49:49.451Z,8.60
2022-12-08T15:52:22.812Z,9.18
2022-12-08T15:54:51.144Z,9.88
2022-12-08T15:57:53.514Z,8.85
2022-12-08T16:00:52.254Z,10.02
2022-12-08T16:04:02.673Z,8.07
2022-12-08T16:09:47.105Z,8.43
2022-12-08T16:18:23.904Z,11.25
2022-12-08T16:23:43.595Z,7.65
2022-12-08T16:26:28.454Z,9.85
2022-12-08T16:29:04.459Z,10.60
2022-12-08T16:31:32.809Z,8.70
2022-12-08T16:34:00.534Z,9.85
2022-12-08T16:36:27.821Z,8.02
2022-12-08T16:38:55.696Z,9.13
2022-12-08T16:41:41.644Z,8.55
2022-12-08T16:44:09.193Z,10.35
2022-12-08T16:46:36.986Z,9.45
2022-12-08T16:49:07.611Z,10.32
2022-12-08T16:51:34.911Z,9.50
2022-12-08T16:54:02.412Z,7.70
2022-12-08T16:56:33.118Z,9.82
2022-12-08T16:59:02.158Z,8.75
2022-12-08T17:01:30.041Z,10.95
2022-12-08T17:06:45.027Z,9.10
2022-12-08T17:09:12.574Z,10.05
2022-12-08T17:11:43.398Z,10.63
2022-12-08T17:14:13.122Z,8.48
2022-12-08T17:16:41.392Z,11.93
2022-12-08T17:19:10.002Z,10.38
2022-12-08T17:21:37.462Z,8.95
2022-12-08T17:24:05.348Z,11.02
2022-12-08T17:26:32.917Z,9.65
2022-12-08T17:29:02.410Z,9.40
2022-12-08T17:31:31.904Z,12.65
2022-12-08T17:34:04.636Z,11.27
2022-12-08T17:36:32.095Z,11.98
2022-12-08T17:39:00.983Z,10.20
2022-12-08T17:41:29.319Z,11.55
2022-12-08T17:43:57.450Z,11.27
2022-12-08T17:46:24.849Z,12.38
2022-12-08T17:48:52.969Z,12.20
2022-12-08T17:51:20.255Z,11.52
2022-12-08T17:53:47.782Z,11.90
2022-12-08T17:56:18.301Z,13.43
2022-12-08T17:58:49.842Z,10.90
2022-12-08T18:01:22.327Z,11.27
2022-12-08T18:03:51.333Z,10.98
2022-12-08T18:06:18.957Z,10.88
2022-12-08T18:08:46.873Z,16.42
2022-12-08T18:11:18.042Z,12.27
2022-12-08T18:13:50.804Z,14.25
2022-12-08T18:16:21.720Z,12.40
2022-12-08T18:18:49.328Z,12.45
2022-12-08T18:21:23.011Z,14.27
2022-12-08T18:23:52.032Z,12.90
2022-12-08T18:26:20.673Z,14.60
2022-12-08T18:28:48.403Z,13.57
2022-12-08T18:31:19.816Z,12.60
2022-12-08T18:33:48.785Z,12.07
2022-12-08T18:36:22.770Z,13.98
2022-12-08T18:38:51.161Z,14.13
2022-12-08T18:41:23.342Z,12.65
2022-12-08T18:43:51.931Z,13.48
2022-12-08T18:46:19.528Z,13.65
2022-12-08T18:48:49.565Z,12.00
2022-12-08T18:51:19.883Z,14.07
2022-12-08T18:53:47.838Z,15.90
2022-12-08T18:56:32.527Z,16.40
2022-12-08T18:59:06.628Z,14.55
2022-12-08T19:01:36.260Z,12.27
2022-12-08T19:06:53.674Z,18.25
2022-12-08T19:09:21.458Z,13.35
2022-12-08T19:11:48.990Z,16.35
2022-12-08T19:14:16.775Z,14.48
2022-12-08T19:16:44.120Z,15.10
2022-12-08T19:19:15.219Z,13.98
2022-12-08T19:21:46.467Z,16.83
2022-12-08T19:24:14.401Z,16.15
2022-12-08T19:26:42.533Z,16.70
2022-12-08T19:29:10.600Z,15.23
2022-12-08T19:31:38.079Z,15.40
2022-12-08T19:34:06.517Z,15.27
2022-12-08T19:36:35.574Z,17.45
2022-12-08T19:39:23.456Z,15.43
2022-12-08T19:42:09.654Z,17.10
2022-12-08T19:44:55.322Z,16.30
2022-12-08T19:47:27.041Z,17.95
2022-12-08T19:50:15.236Z,17.45
2022-12-08T19:52:43.370Z,18.05
2022-12-08T19:55:11.329Z,19.98
2022-12-08T19:57:38.784Z,20.63
2022-12-08T20:00:08.678Z,18.70
2022-12-08T20:02:36.656Z,19.90
2022-12-08T20:05:05.939Z,18.17
2022-12-08T20:07:33.381Z,18.80
2022-12-08T20:10:02.471Z,19.85
2022-12-08T20:12:29.913Z,19.48
2022-12-08T20:14:57.759Z,23.00
2022-12-08T20:17:25.044Z,23.27
2022-12-08T20:19:52.886Z,22.55
2022-12-08T20:22:20.189Z,24.08
2022-12-08T20:24:57.254Z,21.60
2022-12-08T20:27:27.449Z,22.08
2022-12-08T20:29:55.104Z,21.67
2022-12-08T20:32:22.845Z,23.95
2022-12-08T20:34:50.410Z,22.08
2022-12-08T20:37:17.757Z,25.80
2022-12-08T20:39:45.328Z,24.15
2022-12-08T20:42:13.636Z,21.65
2022-12-08T20:44:44.393Z,23.20
2022-12-08T20:47:13.111Z,24.45
2022-12-08T20:49:40.931Z,24.30
2022-12-08T20:52:09.464Z,23.85
2022-12-08T20:54:37.636Z,25.08
2022-12-08T20:57:05.814Z,22.83
2022-12-08T20:59:33.664Z,23.70
2022-12-08T21:02:01.834Z,23.75
2022-12-08T21:04:29.767Z,25.75
2022-12-08T21:06:57.248Z,23.85
2022-12-08T21:09:24.965Z,22.45
2022-12-08T21:11:52.541Z,22.13
2022-12-08T21:14:20.530Z,25.25
2022-12-08T21:16:49.861Z,22.67
2022-12-08T21:19:19.450Z,25.17
2022-12-08T21:21:47.053Z,24.13
2022-12-08T21:24:15.774Z,24.45
2022-12-08T21:26:43.124Z,24.77
2022-12-08T21:29:11.751Z,25.45
2022-12-08T21:31:39.838Z,27.90
2022-12-08T21:34:07.981Z,27.45
2022-12-08T21:36:35.409Z,24.80
2022-12-08T21:39:04.775Z,23.58
2022-12-08T21:41:51.013Z,24.73
2022-12-08T21:44:18.795Z,26.08
2022-12-08T21:46:46.473Z,27.00
2022-12-08T21:49:14.214Z,24.67
2022-12-08T21:51:42.322Z,26.83
2022-12-08T21:54:18.757Z,26.83
2022-12-08T21:56:48.688Z,27.55
2022-12-08T21:59:17.031Z,24.50
2022-12-08T22:01:44.523Z,25.50
2022-12-08T22:04:17.432Z,26.13
2022-12-08T22:06:45.584Z,26.13
2022-12-08T22:09:15.389Z,29.65
2022-12-08T22:11:44.097Z,29.45
2022-12-08T22:14:14.790Z,26.42
2022-12-08T22:16:44.188Z,32.75
2022-12-08T22:19:12.526Z,30.02
2022-12-08T22:21:40.329Z,28.70
2022-12-08T22:24:08.003Z,31.27
2022-12-08T22:26:35.341Z,34.42
2022-12-08T22:29:03.354Z,32.38
2022-12-08T22:31:30.714Z,29.27
2022-12-08T22:33:59.294Z,32.70
2022-12-08T22:36:28.112Z,30.13
2022-12-08T22:38:56.472Z,32.75
2022-12-08T22:41:24.528Z,28.40
2022-12-08T22:43:52.287Z,32.55
2022-12-08T22:46:23.388Z,27.85
2022-12-08T22:48:52.016Z,30.08
2022-12-08T22:51:19.775Z,29.30
2022-12-08T22:53:47.911Z,31.80
2022-12-08T22:56:16.893Z,30.48
2022-12-08T22:58:47.510Z,28.65
2022-12-08T23:01:29.049Z,28.65
2022-12-08T23:03:58.359Z,28.88
2022-12-08T23:06:27.279Z,30.67
2022-12-08T23:08:55.543Z,35.13
2022-12-08T23:11:25.385Z,29.90
2022-12-08T23:13:53.787Z,28.55
2022-12-08T23:16:21.102Z,31.50
2022-12-08T23:18:48.891Z,31.35
2022-12-08T23:21:18.660Z,29.05
2022-12-08T23:23:46.699Z,31.25
2022-12-08T23:26:26.678Z,33.30
2022-12-08T23:28:55.996Z,29.90
2022-12-08T23:31:23.874Z,30.20
2022-12-08T23:33:52.405Z,31.88
2022-12-08T23:36:21.724Z,30.23
2022-12-08T23:38:49.585Z,30.75
2022-12-08T23:41:17.351Z,28.27
2022-12-08T23:43:47.286Z,33.22
2022-12-08T23:46:17.343Z,32.33
2022-12-08T23:48:45.163Z,31.70
2022-12-08T23:51:13.147Z,31.30
2022-12-08T23:53:41.130Z,31.40
2022-12-08T23:56:11.176Z,31.67
2022-12-08T23:58:39.680Z,35.20
